»·PEaware :: N2997P L52-L88

N2997P :: L52-L88

FLIGHT INFORMATION

Flight Status: Arrived
Operator: Privately registered:
United States
More flights under this callsign
Pilot: John D. (31622)
Aircraft: CESSNA 172 SKYHAWK
(C172)
More flights by this aircraft type
Origin: L52 Oceano Co
United States
Destination: L88 New Cuyama
United States
More flights between these airports :: More routes between these airports
Route:
File this flight plan on PilotEdge
Remarks:
Altitude:
(Current/Filed)
7,000ft
Speed:
(Current/Filed)
150kts
Departed: 19-Sep-20 03:14 PM
Arrived: 19-Sep-20 03:46 PM
Distance/Time
Traveled:
47nm/0:31
Distance/Time
To Go:
Arrived

Flight Plot

Page will automatically refresh every two minutes.


Map Options




Map Legend


Flown Route
Filed Route
Departure Airport
Arrival Airport
Navaid (VOR, NDB)
Fix

Horizontal Profiles

Position Reports

Time Latitude Longitude Heading Altitude Ground
Speed
19-Sep-20 14:58 35.102097 -120.622279 213 17ft 0kts
19-Sep-20 14:59 35.102097 -120.622279 213 17ft 0kts
19-Sep-20 15:00 35.102097 -120.622279 213 17ft 0kts
19-Sep-20 15:01 35.102097 -120.622279 213 17ft 0kts
19-Sep-20 15:02 35.102097 -120.622279 213 17ft 0kts
19-Sep-20 15:03 35.102097 -120.622279 213 17ft 0kts
19-Sep-20 15:04 35.102097 -120.622279 213 17ft 0kts
19-Sep-20 15:05 35.102097 -120.622279 213 17ft 0kts
19-Sep-20 15:06 35.102097 -120.622279 213 17ft 0kts
19-Sep-20 15:07 35.102089 -120.622286 213 17ft 0kts
19-Sep-20 15:08 35.101813 -120.622229 194 16ft 0kts
19-Sep-20 15:09 35.100894 -120.622087 122 16ft 7kts
19-Sep-20 15:10 35.099536 -120.619586 258 17ft 1kts
19-Sep-20 15:11 35.099542 -120.619598 310 17ft 0kts
19-Sep-20 15:12 35.099927 -120.619435 330 17ft 11kts
19-Sep-20 15:13 35.104665 -120.634541 280 800ft 54kts
19-Sep-20 15:14 35.090176 -120.653147 202 2021ft 88kts
19-Sep-20 15:15 35.070855 -120.631565 90 3073ft 92kts
19-Sep-20 15:16 35.066788 -120.600740 93 4045ft 81kts
19-Sep-20 15:17 35.060909 -120.577209 90 4739ft 85kts
19-Sep-20 15:18 35.060690 -120.543045 82 5359ft 109kts
19-Sep-20 15:19 35.062126 -120.501699 81 5912ft 117kts
19-Sep-20 15:20 35.064113 -120.459329 81 6455ft 117kts
19-Sep-20 15:21 35.066175 -120.417522 81 7001ft 115kts
19-Sep-20 15:22 35.068325 -120.376445 81 7506ft 117kts
19-Sep-20 15:23 35.071234 -120.330064 81 7487ft 134kts
19-Sep-20 15:24 35.074581 -120.281616 81 7487ft 135kts
19-Sep-20 15:25 35.073465 -120.233007 99 7487ft 138kts
19-Sep-20 15:26 35.063523 -120.184998 102 7486ft 138kts
19-Sep-20 15:27 35.053311 -120.136998 102 7484ft 138kts
19-Sep-20 15:28 35.042703 -120.089097 103 7482ft 133kts
19-Sep-20 15:29 35.032693 -120.042517 103 7480ft 133kts
19-Sep-20 15:30 35.023119 -119.996250 103 7441ft 136kts
19-Sep-20 15:31 35.014455 -119.953119 103 6842ft 114kts
19-Sep-20 15:32 35.004965 -119.912364 113 6013ft 121kts
19-Sep-20 15:33 34.991462 -119.872785 114 5169ft 125kts
19-Sep-20 15:34 34.971908 -119.832314 122 3992ft 131kts
19-Sep-20 15:35 34.974025 -119.792442 151 3093ft 100kts
19-Sep-20 15:36 34.974978 -119.799351 331 2738ft 104kts
19-Sep-20 15:37 35.002187 -119.807938 75 2258ft 106kts
19-Sep-20 15:38 34.983657 -119.772576 126 2461ft 119kts
19-Sep-20 15:39 34.967416 -119.734367 121 2355ft 107kts
19-Sep-20 15:40 34.952219 -119.706909 142 2547ft 87kts
19-Sep-20 15:41 34.938373 -119.681248 118 2282ft 76kts
19-Sep-20 15:42 34.924436 -119.674707 242 2644ft 52kts
19-Sep-20 15:43 34.932980 -119.691650 291 2872ft 57kts
19-Sep-20 15:45 34.943333 -119.706243 17 2964ft 85kts
19-Sep-20 15:46 34.938713 -119.682488 116 2190ft 18kts
19-Sep-20 15:47 34.939774 -119.685183 297 2179ft 26kts
19-Sep-20 15:48 34.942742 -119.691201 353 2155ft 2kts
19-Sep-20 15:49 34.942647 -119.689927 303 2157ft 1kts
19-Sep-20 15:50 34.942658 -119.689968 292 2157ft 0kts

Navigation Log

Ident Type
Flight plan parsing failed, navigation log unavailable